sensor_id;sensor_type;location;lat;lon;timestamp;P1;durP1;ratioP1;P2;durP2;ratioP2
53044;SDS011;38930;52.766;6.884;2023-03-30T00:00:38;15.00;;;9.50;;
53044;SDS011;38930;52.766;6.884;2023-03-30T00:03:03;17.42;;;10.07;;
53044;SDS011;38930;52.766;6.884;2023-03-30T00:05:29;16.63;;;9.57;;
53044;SDS011;38930;52.766;6.884;2023-03-30T00:07:55;14.17;;;9.30;;
53044;SDS011;38930;52.766;6.884;2023-03-30T00:10:21;15.38;;;8.30;;
53044;SDS011;38930;52.766;6.884;2023-03-30T00:12:48;14.43;;;8.80;;
53044;SDS011;38930;52.766;6.884;2023-03-30T00:15:18;13.95;;;7.95;;
53044;SDS011;38930;52.766;6.884;2023-03-30T00:17:45;14.60;;;8.23;;
53044;SDS011;38930;52.766;6.884;2023-03-30T00:20:11;15.77;;;8.40;;
53044;SDS011;38930;52.766;6.884;2023-03-30T00:25:08;9.75;;;8.30;;
53044;SDS011;38930;52.766;6.884;2023-03-30T00:27:37;14.30;;;8.13;;
53044;SDS011;38930;52.766;6.884;2023-03-30T00:30:04;14.50;;;8.20;;
53044;SDS011;38930;52.766;6.884;2023-03-30T00:32:31;13.07;;;8.00;;
53044;SDS011;38930;52.766;6.884;2023-03-30T00:34:58;13.93;;;7.95;;
53044;SDS011;38930;52.766;6.884;2023-03-30T00:37:25;11.82;;;7.68;;
53044;SDS011;38930;52.766;6.884;2023-03-30T00:39:51;10.25;;;7.45;;
53044;SDS011;38930;52.766;6.884;2023-03-30T00:42:18;12.40;;;7.20;;
53044;SDS011;38930;52.766;6.884;2023-03-30T00:47:42;9.98;;;7.00;;
53044;SDS011;38930;52.766;6.884;2023-03-30T00:50:12;9.15;;;6.38;;
53044;SDS011;38930;52.766;6.884;2023-03-30T00:52:38;12.05;;;6.45;;
53044;SDS011;38930;52.766;6.884;2023-03-30T00:55:05;9.82;;;6.15;;
53044;SDS011;38930;52.766;6.884;2023-03-30T00:57:35;9.88;;;5.68;;
53044;SDS011;38930;52.766;6.884;2023-03-30T01:00:03;9.43;;;5.35;;
53044;SDS011;38930;52.766;6.884;2023-03-30T01:02:32;9.65;;;5.15;;
53044;SDS011;38930;52.766;6.884;2023-03-30T01:05:01;13.45;;;5.20;;
53044;SDS011;38930;52.766;6.884;2023-03-30T01:07:28;9.77;;;5.03;;
53044;SDS011;38930;52.766;6.884;2023-03-30T01:09:55;10.25;;;5.00;;
53044;SDS011;38930;52.766;6.884;2023-03-30T01:12:22;7.22;;;4.18;;
53044;SDS011;38930;52.766;6.884;2023-03-30T01:14:48;9.10;;;4.32;;
53044;SDS011;38930;52.766;6.884;2023-03-30T01:20:11;9.48;;;4.28;;
53044;SDS011;38930;52.766;6.884;2023-03-30T01:26:10;5.68;;;4.20;;
53044;SDS011;38930;52.766;6.884;2023-03-30T01:28:57;7.32;;;4.07;;
53044;SDS011;38930;52.766;6.884;2023-03-30T01:34:48;8.60;;;4.45;;
53044;SDS011;38930;52.766;6.884;2023-03-30T01:40:37;10.35;;;4.30;;
53044;SDS011;38930;52.766;6.884;2023-03-30T01:43:18;6.88;;;4.50;;
53044;SDS011;38930;52.766;6.884;2023-03-30T01:46:01;7.03;;;4.78;;
53044;SDS011;38930;52.766;6.884;2023-03-30T01:51:04;6.13;;;4.20;;
53044;SDS011;38930;52.766;6.884;2023-03-30T01:56:23;10.80;;;3.90;;
53044;SDS011;38930;52.766;6.884;2023-03-30T02:01:43;6.63;;;4.32;;
53044;SDS011;38930;52.766;6.884;2023-03-30T02:04:14;8.50;;;4.15;;
53044;SDS011;38930;52.766;6.884;2023-03-30T02:06:45;9.88;;;4.53;;
53044;SDS011;38930;52.766;6.884;2023-03-30T02:09:16;10.52;;;4.72;;
53044;SDS011;38930;52.766;6.884;2023-03-30T02:11:46;8.70;;;3.70;;
53044;SDS011;38930;52.766;6.884;2023-03-30T02:14:15;7.07;;;3.88;;
53044;SDS011;38930;52.766;6.884;2023-03-30T02:16:44;7.00;;;3.70;;
53044;SDS011;38930;52.766;6.884;2023-03-30T02:19:12;10.43;;;3.88;;
53044;SDS011;38930;52.766;6.884;2023-03-30T02:21:39;8.27;;;4.45;;
53044;SDS011;38930;52.766;6.884;2023-03-30T02:24:06;7.25;;;3.60;;
53044;SDS011;38930;52.766;6.884;2023-03-30T02:26:35;5.75;;;3.47;;
53044;SDS011;38930;52.766;6.884;2023-03-30T02:29:01;6.65;;;3.40;;
53044;SDS011;38930;52.766;6.884;2023-03-30T02:31:28;6.05;;;3.55;;
53044;SDS011;38930;52.766;6.884;2023-03-30T02:34:03;6.35;;;3.70;;
53044;SDS011;38930;52.766;6.884;2023-03-30T02:39:51;11.38;;;3.72;;
53044;SDS011;38930;52.766;6.884;2023-03-30T02:47:49;6.38;;;3.58;;
53044;SDS011;38930;52.766;6.884;2023-03-30T02:53:23;8.73;;;4.00;;
53044;SDS011;38930;52.766;6.884;2023-03-30T02:56:22;12.10;;;4.13;;
53044;SDS011;38930;52.766;6.884;2023-03-30T02:58:50;6.13;;;3.42;;
53044;SDS011;38930;52.766;6.884;2023-03-30T03:01:27;7.45;;;4.13;;
53044;SDS011;38930;52.766;6.884;2023-03-30T03:04:06;7.25;;;3.67;;
53044;SDS011;38930;52.766;6.884;2023-03-30T03:06:34;7.50;;;3.60;;
53044;SDS011;38930;52.766;6.884;2023-03-30T03:09:02;5.60;;;3.35;;
53044;SDS011;38930;52.766;6.884;2023-03-30T03:11:28;6.10;;;3.65;;
53044;SDS011;38930;52.766;6.884;2023-03-30T03:13:54;6.30;;;3.05;;
53044;SDS011;38930;52.766;6.884;2023-03-30T03:16:20;9.68;;;3.85;;
53044;SDS011;38930;52.766;6.884;2023-03-30T03:18:46;5.57;;;3.72;;
53044;SDS011;38930;52.766;6.884;2023-03-30T03:21:13;6.10;;;3.80;;
53044;SDS011;38930;52.766;6.884;2023-03-30T03:23:39;7.32;;;3.53;;
53044;SDS011;38930;52.766;6.884;2023-03-30T03:26:05;5.03;;;3.47;;
53044;SDS011;38930;52.766;6.884;2023-03-30T03:28:32;6.13;;;3.67;;
53044;SDS011;38930;52.766;6.884;2023-03-30T03:30:58;7.82;;;3.60;;
53044;SDS011;38930;52.766;6.884;2023-03-30T03:33:27;9.23;;;3.63;;
53044;SDS011;38930;52.766;6.884;2023-03-30T03:35:55;10.15;;;4.07;;
53044;SDS011;38930;52.766;6.884;2023-03-30T03:38:23;9.13;;;3.30;;
53044;SDS011;38930;52.766;6.884;2023-03-30T03:40:53;6.32;;;3.55;;
53044;SDS011;38930;52.766;6.884;2023-03-30T03:43:21;8.38;;;3.47;;
53044;SDS011;38930;52.766;6.884;2023-03-30T03:45:47;8.73;;;3.55;;
53044;SDS011;38930;52.766;6.884;2023-03-30T03:48:14;5.55;;;3.03;;
53044;SDS011;38930;52.766;6.884;2023-03-30T03:50:40;7.38;;;3.00;;
53044;SDS011;38930;52.766;6.884;2023-03-30T03:53:07;7.28;;;2.90;;
53044;SDS011;38930;52.766;6.884;2023-03-30T03:57:59;5.82;;;3.10;;
53044;SDS011;38930;52.766;6.884;2023-03-30T04:00:29;6.53;;;3.15;;
53044;SDS011;38930;52.766;6.884;2023-03-30T04:02:54;10.18;;;4.22;;
53044;SDS011;38930;52.766;6.884;2023-03-30T04:05:21;6.05;;;3.15;;
53044;SDS011;38930;52.766;6.884;2023-03-30T04:07:47;8.37;;;3.43;;
53044;SDS011;38930;52.766;6.884;2023-03-30T04:10:13;5.85;;;3.13;;
53044;SDS011;38930;52.766;6.884;2023-03-30T04:12:39;7.95;;;3.25;;
53044;SDS011;38930;52.766;6.884;2023-03-30T04:15:05;6.60;;;3.10;;
53044;SDS011;38930;52.766;6.884;2023-03-30T04:17:32;9.23;;;3.72;;
53044;SDS011;38930;52.766;6.884;2023-03-30T04:19:59;6.18;;;3.22;;
53044;SDS011;38930;52.766;6.884;2023-03-30T04:22:30;6.10;;;3.45;;
53044;SDS011;38930;52.766;6.884;2023-03-30T04:25:06;5.13;;;3.22;;
53044;SDS011;38930;52.766;6.884;2023-03-30T04:27:34;4.82;;;3.30;;
53044;SDS011;38930;52.766;6.884;2023-03-30T04:30:02;10.35;;;3.33;;
53044;SDS011;38930;52.766;6.884;2023-03-30T04:32:29;6.65;;;3.15;;
53044;SDS011;38930;52.766;6.884;2023-03-30T04:34:59;6.70;;;3.50;;
53044;SDS011;38930;52.766;6.884;2023-03-30T04:37:25;4.75;;;3.38;;
53044;SDS011;38930;52.766;6.884;2023-03-30T04:39:57;8.40;;;3.45;;
53044;SDS011;38930;52.766;6.884;2023-03-30T04:42:24;7.38;;;3.10;;
53044;SDS011;38930;52.766;6.884;2023-03-30T04:45:01;9.07;;;3.55;;
53044;SDS011;38930;52.766;6.884;2023-03-30T04:47:28;6.90;;;3.20;;
53044;SDS011;38930;52.766;6.884;2023-03-30T04:49:54;5.28;;;3.10;;
53044;SDS011;38930;52.766;6.884;2023-03-30T04:52:20;4.20;;;2.97;;
53044;SDS011;38930;52.766;6.884;2023-03-30T04:54:46;5.93;;;3.23;;
53044;SDS011;38930;52.766;6.884;2023-03-30T04:57:12;8.38;;;3.30;;
53044;SDS011;38930;52.766;6.884;2023-03-30T05:02:05;6.32;;;3.63;;
53044;SDS011;38930;52.766;6.884;2023-03-30T05:04:31;8.80;;;3.67;;
53044;SDS011;38930;52.766;6.884;2023-03-30T05:06:57;7.47;;;3.35;;
53044;SDS011;38930;52.766;6.884;2023-03-30T05:09:22;6.63;;;3.35;;
53044;SDS011;38930;52.766;6.884;2023-03-30T05:11:48;11.43;;;3.80;;
53044;SDS011;38930;52.766;6.884;2023-03-30T05:14:14;12.55;;;4.85;;
53044;SDS011;38930;52.766;6.884;2023-03-30T05:16:41;8.10;;;2.92;;
53044;SDS011;38930;52.766;6.884;2023-03-30T05:19:06;10.85;;;3.67;;
53044;SDS011;38930;52.766;6.884;2023-03-30T05:21:32;5.03;;;2.80;;
53044;SDS011;38930;52.766;6.884;2023-03-30T05:23:58;7.03;;;3.00;;
53044;SDS011;38930;52.766;6.884;2023-03-30T05:26:24;5.25;;;3.58;;
53044;SDS011;38930;52.766;6.884;2023-03-30T05:28:50;6.38;;;3.30;;
53044;SDS011;38930;52.766;6.884;2023-03-30T05:31:16;8.13;;;2.95;;
53044;SDS011;38930;52.766;6.884;2023-03-30T05:33:42;5.73;;;3.20;;
53044;SDS011;38930;52.766;6.884;2023-03-30T05:36:08;6.00;;;3.40;;
53044;SDS011;38930;52.766;6.884;2023-03-30T05:38:34;11.05;;;3.00;;
53044;SDS011;38930;52.766;6.884;2023-03-30T05:41:00;8.57;;;2.85;;
53044;SDS011;38930;52.766;6.884;2023-03-30T05:43:28;5.22;;;2.90;;
53044;SDS011;38930;52.766;6.884;2023-03-30T05:45:55;8.77;;;3.20;;
53044;SDS011;38930;52.766;6.884;2023-03-30T05:48:21;6.25;;;2.90;;
53044;SDS011;38930;52.766;6.884;2023-03-30T05:50:47;5.20;;;2.70;;
53044;SDS011;38930;52.766;6.884;2023-03-30T05:53:12;7.30;;;3.20;;
53044;SDS011;38930;52.766;6.884;2023-03-30T05:55:38;7.85;;;2.60;;
53044;SDS011;38930;52.766;6.884;2023-03-30T05:58:06;5.28;;;2.72;;
53044;SDS011;38930;52.766;6.884;2023-03-30T06:00:32;4.93;;;2.60;;
53044;SDS011;38930;52.766;6.884;2023-03-30T06:03:00;4.85;;;2.78;;
53044;SDS011;38930;52.766;6.884;2023-03-30T06:05:26;4.60;;;2.65;;
53044;SDS011;38930;52.766;6.884;2023-03-30T06:07:52;6.70;;;2.40;;
53044;SDS011;38930;52.766;6.884;2023-03-30T06:10:18;8.55;;;4.10;;
53044;SDS011;38930;52.766;6.884;2023-03-30T06:12:44;6.40;;;2.40;;
53044;SDS011;38930;52.766;6.884;2023-03-30T06:15:09;6.50;;;2.38;;
53044;SDS011;38930;52.766;6.884;2023-03-30T06:17:35;8.93;;;2.95;;
53044;SDS011;38930;52.766;6.884;2023-03-30T06:20:02;4.75;;;2.40;;
53044;SDS011;38930;52.766;6.884;2023-03-30T06:22:35;5.18;;;2.17;;
53044;SDS011;38930;52.766;6.884;2023-03-30T06:25:00;3.72;;;2.25;;
53044;SDS011;38930;52.766;6.884;2023-03-30T06:27:27;4.73;;;2.50;;
53044;SDS011;38930;52.766;6.884;2023-03-30T06:29:55;5.00;;;2.13;;
53044;SDS011;38930;52.766;6.884;2023-03-30T06:32:21;5.80;;;2.47;;
53044;SDS011;38930;52.766;6.884;2023-03-30T06:34:47;6.47;;;3.20;;
53044;SDS011;38930;52.766;6.884;2023-03-30T06:37:12;5.75;;;2.40;;
53044;SDS011;38930;52.766;6.884;2023-03-30T06:39:39;8.68;;;2.45;;
53044;SDS011;38930;52.766;6.884;2023-03-30T06:42:05;5.75;;;2.92;;
53044;SDS011;38930;52.766;6.884;2023-03-30T06:44:31;9.52;;;2.80;;
53044;SDS011;38930;52.766;6.884;2023-03-30T06:46:58;5.15;;;2.38;;
53044;SDS011;38930;52.766;6.884;2023-03-30T06:49:24;6.22;;;2.40;;
53044;SDS011;38930;52.766;6.884;2023-03-30T06:51:49;9.18;;;2.90;;
53044;SDS011;38930;52.766;6.884;2023-03-30T06:54:15;2.85;;;1.92;;
53044;SDS011;38930;52.766;6.884;2023-03-30T06:56:44;8.00;;;1.88;;
53044;SDS011;38930;52.766;6.884;2023-03-30T06:59:10;7.60;;;2.25;;
53044;SDS011;38930;52.766;6.884;2023-03-30T07:01:37;8.50;;;2.13;;
53044;SDS011;38930;52.766;6.884;2023-03-30T07:04:03;5.45;;;2.47;;
53044;SDS011;38930;52.766;6.884;2023-03-30T07:06:29;7.40;;;2.35;;
53044;SDS011;38930;52.766;6.884;2023-03-30T07:08:55;7.22;;;2.20;;
53044;SDS011;38930;52.766;6.884;2023-03-30T07:11:20;7.88;;;2.17;;
53044;SDS011;38930;52.766;6.884;2023-03-30T07:13:47;4.43;;;2.13;;
53044;SDS011;38930;52.766;6.884;2023-03-30T07:16:12;6.50;;;1.88;;
53044;SDS011;38930;52.766;6.884;2023-03-30T07:18:38;11.02;;;2.67;;
53044;SDS011;38930;52.766;6.884;2023-03-30T07:21:04;3.25;;;1.98;;
53044;SDS011;38930;52.766;6.884;2023-03-30T07:23:30;4.77;;;2.53;;
53044;SDS011;38930;52.766;6.884;2023-03-30T07:25:55;9.25;;;2.22;;
53044;SDS011;38930;52.766;6.884;2023-03-30T07:28:21;5.68;;;2.80;;
53044;SDS011;38930;52.766;6.884;2023-03-30T07:30:47;5.47;;;2.50;;
53044;SDS011;38930;52.766;6.884;2023-03-30T07:33:12;8.52;;;2.78;;
53044;SDS011;38930;52.766;6.884;2023-03-30T07:35:45;7.43;;;2.30;;
53044;SDS011;38930;52.766;6.884;2023-03-30T07:38:12;8.88;;;2.35;;
53044;SDS011;38930;52.766;6.884;2023-03-30T07:40:38;6.70;;;2.40;;
53044;SDS011;38930;52.766;6.884;2023-03-30T07:43:04;6.78;;;2.55;;
53044;SDS011;38930;52.766;6.884;2023-03-30T07:45:31;6.70;;;2.22;;
53044;SDS011;38930;52.766;6.884;2023-03-30T07:47:57;10.53;;;2.47;;
53044;SDS011;38930;52.766;6.884;2023-03-30T07:50:23;10.27;;;2.03;;
53044;SDS011;38930;52.766;6.884;2023-03-30T07:52:49;13.90;;;2.50;;
53044;SDS011;38930;52.766;6.884;2023-03-30T07:55:15;10.30;;;2.63;;
53044;SDS011;38930;52.766;6.884;2023-03-30T07:57:41;13.77;;;2.00;;
53044;SDS011;38930;52.766;6.884;2023-03-30T08:00:08;11.32;;;2.30;;
53044;SDS011;38930;52.766;6.884;2023-03-30T08:02:34;10.60;;;2.58;;
53044;SDS011;38930;52.766;6.884;2023-03-30T08:05:01;12.20;;;2.60;;
53044;SDS011;38930;52.766;6.884;2023-03-30T08:07:26;7.57;;;2.38;;
53044;SDS011;38930;52.766;6.884;2023-03-30T08:09:52;10.40;;;2.77;;
53044;SDS011;38930;52.766;6.884;2023-03-30T08:12:18;12.43;;;3.05;;
53044;SDS011;38930;52.766;6.884;2023-03-30T08:14:44;7.80;;;2.15;;
53044;SDS011;38930;52.766;6.884;2023-03-30T08:17:10;13.95;;;3.47;;
53044;SDS011;38930;52.766;6.884;2023-03-30T08:19:36;7.18;;;2.78;;
53044;SDS011;38930;52.766;6.884;2023-03-30T08:22:02;12.87;;;2.23;;
53044;SDS011;38930;52.766;6.884;2023-03-30T08:24:27;9.88;;;2.75;;
53044;SDS011;38930;52.766;6.884;2023-03-30T08:26:53;10.53;;;2.40;;
53044;SDS011;38930;52.766;6.884;2023-03-30T08:29:19;15.57;;;3.00;;
53044;SDS011;38930;52.766;6.884;2023-03-30T08:31:45;8.82;;;2.40;;
53044;SDS011;38930;52.766;6.884;2023-03-30T08:34:11;12.15;;;2.80;;
53044;SDS011;38930;52.766;6.884;2023-03-30T08:36:37;12.77;;;2.93;;
53044;SDS011;38930;52.766;6.884;2023-03-30T08:39:03;13.95;;;3.08;;
53044;SDS011;38930;52.766;6.884;2023-03-30T08:46:39;12.05;;;2.90;;
53044;SDS011;38930;52.766;6.884;2023-03-30T08:49:11;11.50;;;3.03;;
53044;SDS011;38930;52.766;6.884;2023-03-30T08:51:39;15.68;;;3.88;;
53044;SDS011;38930;52.766;6.884;2023-03-30T08:54:08;14.90;;;3.60;;
53044;SDS011;38930;52.766;6.884;2023-03-30T08:59:50;14.50;;;3.72;;
53044;SDS011;38930;52.766;6.884;2023-03-30T09:04:55;14.90;;;2.90;;
53044;SDS011;38930;52.766;6.884;2023-03-30T09:07:38;13.57;;;3.22;;
53044;SDS011;38930;52.766;6.884;2023-03-30T09:10:12;11.70;;;3.00;;
53044;SDS011;38930;52.766;6.884;2023-03-30T09:15:10;23.10;;;3.85;;
53044;SDS011;38930;52.766;6.884;2023-03-30T09:20:39;13.00;;;3.72;;
53044;SDS011;38930;52.766;6.884;2023-03-30T09:23:11;18.15;;;3.60;;
53044;SDS011;38930;52.766;6.884;2023-03-30T09:25:46;20.58;;;4.03;;
53044;SDS011;38930;52.766;6.884;2023-03-30T09:28:18;14.73;;;3.17;;
53044;SDS011;38930;52.766;6.884;2023-03-30T09:31:01;17.52;;;3.25;;
53044;SDS011;38930;52.766;6.884;2023-03-30T09:36:19;15.45;;;3.72;;
53044;SDS011;38930;52.766;6.884;2023-03-30T09:39:17;18.20;;;2.85;;
53044;SDS011;38930;52.766;6.884;2023-03-30T09:41:56;13.07;;;3.60;;
53044;SDS011;38930;52.766;6.884;2023-03-30T09:44:58;16.98;;;3.65;;
53044;SDS011;38930;52.766;6.884;2023-03-30T09:50:04;16.05;;;2.75;;
53044;SDS011;38930;52.766;6.884;2023-03-30T09:52:31;15.02;;;2.97;;
53044;SDS011;38930;52.766;6.884;2023-03-30T09:55:52;12.90;;;2.55;;
53044;SDS011;38930;52.766;6.884;2023-03-30T09:57:51;11.95;;;2.58;;
53044;SDS011;38930;52.766;6.884;2023-03-30T10:02:55;15.00;;;3.03;;
53044;SDS011;38930;52.766;6.884;2023-03-30T10:05:22;16.00;;;2.70;;
53044;SDS011;38930;52.766;6.884;2023-03-30T10:07:52;14.50;;;2.80;;
53044;SDS011;38930;52.766;6.884;2023-03-30T10:13:04;12.05;;;2.72;;
53044;SDS011;38930;52.766;6.884;2023-03-30T10:15:32;16.42;;;2.92;;
53044;SDS011;38930;52.766;6.884;2023-03-30T10:18:05;13.77;;;2.60;;
53044;SDS011;38930;52.766;6.884;2023-03-30T10:20:52;15.18;;;2.80;;
53044;SDS011;38930;52.766;6.884;2023-03-30T10:23:33;11.90;;;2.80;;
53044;SDS011;38930;52.766;6.884;2023-03-30T10:26:10;14.27;;;3.25;;
53044;SDS011;38930;52.766;6.884;2023-03-30T10:28:39;16.20;;;2.60;;
53044;SDS011;38930;52.766;6.884;2023-03-30T10:31:19;14.95;;;3.08;;
53044;SDS011;38930;52.766;6.884;2023-03-30T10:36:12;12.15;;;2.33;;
53044;SDS011;38930;52.766;6.884;2023-03-30T10:38:40;11.38;;;2.60;;
53044;SDS011;38930;52.766;6.884;2023-03-30T10:41:14;9.07;;;2.67;;
53044;SDS011;38930;52.766;6.884;2023-03-30T10:43:45;15.75;;;2.90;;
53044;SDS011;38930;52.766;6.884;2023-03-30T10:46:13;12.43;;;2.42;;
53044;SDS011;38930;52.766;6.884;2023-03-30T10:49:08;8.82;;;2.22;;
53044;SDS011;38930;52.766;6.884;2023-03-30T10:54:04;11.87;;;2.57;;
53044;SDS011;38930;52.766;6.884;2023-03-30T10:56:44;10.00;;;1.95;;
53044;SDS011;38930;52.766;6.884;2023-03-30T10:59:22;15.55;;;2.13;;
53044;SDS011;38930;52.766;6.884;2023-03-30T11:04:58;15.65;;;2.53;;
53044;SDS011;38930;52.766;6.884;2023-03-30T11:09:54;8.93;;;1.83;;
53044;SDS011;38930;52.766;6.884;2023-03-30T11:12:25;10.73;;;2.10;;
53044;SDS011;38930;52.766;6.884;2023-03-30T11:14:59;12.27;;;2.53;;
53044;SDS011;38930;52.766;6.884;2023-03-30T11:17:31;14.88;;;2.63;;
53044;SDS011;38930;52.766;6.884;2023-03-30T11:20:04;9.40;;;1.90;;
53044;SDS011;38930;52.766;6.884;2023-03-30T11:22:45;13.30;;;2.92;;
53044;SDS011;38930;52.766;6.884;2023-03-30T11:25:31;11.48;;;2.00;;
53044;SDS011;38930;52.766;6.884;2023-03-30T11:30:57;7.32;;;1.90;;
53044;SDS011;38930;52.766;6.884;2023-03-30T11:33:46;8.52;;;2.53;;
53044;SDS011;38930;52.766;6.884;2023-03-30T11:36:22;10.35;;;1.98;;
53044;SDS011;38930;52.766;6.884;2023-03-30T11:39:00;9.02;;;2.28;;
53044;SDS011;38930;52.766;6.884;2023-03-30T11:44:15;10.82;;;2.33;;
53044;SDS011;38930;52.766;6.884;2023-03-30T11:49:23;12.63;;;2.42;;
53044;SDS011;38930;52.766;6.884;2023-03-30T11:52:49;12.43;;;2.28;;
53044;SDS011;38930;52.766;6.884;2023-03-30T11:57:59;14.90;;;2.30;;
53044;SDS011;38930;52.766;6.884;2023-03-30T12:00:38;11.55;;;2.50;;
53044;SDS011;38930;52.766;6.884;2023-03-30T12:03:38;12.43;;;2.40;;
53044;SDS011;38930;52.766;6.884;2023-03-30T12:06:26;13.85;;;2.55;;
53044;SDS011;38930;52.766;6.884;2023-03-30T12:09:03;12.23;;;2.83;;
53044;SDS011;38930;52.766;6.884;2023-03-30T12:11:40;13.43;;;2.85;;
53044;SDS011;38930;52.766;6.884;2023-03-30T12:17:12;11.63;;;2.33;;
53044;SDS011;38930;52.766;6.884;2023-03-30T12:19:50;12.10;;;2.20;;
53044;SDS011;38930;52.766;6.884;2023-03-30T12:25:34;12.98;;;2.78;;
53044;SDS011;38930;52.766;6.884;2023-03-30T12:28:10;13.60;;;2.83;;
53044;SDS011;38930;52.766;6.884;2023-03-30T12:33:10;12.88;;;2.70;;
53044;SDS011;38930;52.766;6.884;2023-03-30T12:36:02;14.23;;;2.63;;
53044;SDS011;38930;52.766;6.884;2023-03-30T12:38:47;17.52;;;3.50;;
53044;SDS011;38930;52.766;6.884;2023-03-30T12:41:14;12.48;;;2.72;;
53044;SDS011;38930;52.766;6.884;2023-03-30T12:44:02;6.72;;;2.25;;
53044;SDS011;38930;52.766;6.884;2023-03-30T12:49:36;14.52;;;3.03;;
53044;SDS011;38930;52.766;6.884;2023-03-30T12:52:14;14.27;;;3.08;;
53044;SDS011;38930;52.766;6.884;2023-03-30T12:57:24;18.50;;;3.00;;
53044;SDS011;38930;52.766;6.884;2023-03-30T13:02:59;12.50;;;2.88;;
53044;SDS011;38930;52.766;6.884;2023-03-30T13:05:41;16.13;;;2.65;;
53044;SDS011;38930;52.766;6.884;2023-03-30T13:08:14;20.08;;;2.92;;
53044;SDS011;38930;52.766;6.884;2023-03-30T13:13:21;18.02;;;2.95;;
53044;SDS011;38930;52.766;6.884;2023-03-30T13:16:06;14.30;;;2.70;;
53044;SDS011;38930;52.766;6.884;2023-03-30T13:18:34;13.43;;;3.30;;
53044;SDS011;38930;52.766;6.884;2023-03-30T13:21:14;12.00;;;2.47;;
53044;SDS011;38930;52.766;6.884;2023-03-30T13:23:42;11.35;;;2.20;;
53044;SDS011;38930;52.766;6.884;2023-03-30T13:26:22;12.20;;;2.45;;
53044;SDS011;38930;52.766;6.884;2023-03-30T13:28:54;9.50;;;2.65;;
53044;SDS011;38930;52.766;6.884;2023-03-30T13:34:06;9.15;;;2.08;;
53044;SDS011;38930;52.766;6.884;2023-03-30T13:42:13;13.93;;;2.50;;
53044;SDS011;38930;52.766;6.884;2023-03-30T13:44:58;15.00;;;3.17;;
53044;SDS011;38930;52.766;6.884;2023-03-30T13:47:42;22.63;;;3.00;;
53044;SDS011;38930;52.766;6.884;2023-03-30T13:50:25;11.15;;;2.65;;
53044;SDS011;38930;52.766;6.884;2023-03-30T13:52:56;12.80;;;2.92;;
53044;SDS011;38930;52.766;6.884;2023-03-30T13:55:29;19.27;;;3.05;;
53044;SDS011;38930;52.766;6.884;2023-03-30T13:58:21;16.40;;;3.08;;
53044;SDS011;38930;52.766;6.884;2023-03-30T14:06:21;17.67;;;3.70;;
53044;SDS011;38930;52.766;6.884;2023-03-30T14:11:48;13.23;;;3.05;;
53044;SDS011;38930;52.766;6.884;2023-03-30T14:14:30;12.20;;;2.72;;
53044;SDS011;38930;52.766;6.884;2023-03-30T14:17:03;15.02;;;2.90;;
53044;SDS011;38930;52.766;6.884;2023-03-30T14:19:46;10.18;;;2.45;;
53044;SDS011;38930;52.766;6.884;2023-03-30T14:22:38;16.02;;;2.58;;
53044;SDS011;38930;52.766;6.884;2023-03-30T14:25:20;16.35;;;2.90;;
53044;SDS011;38930;52.766;6.884;2023-03-30T14:27:49;14.13;;;3.03;;
53044;SDS011;38930;52.766;6.884;2023-03-30T14:30:19;14.27;;;2.60;;
53044;SDS011;38930;52.766;6.884;2023-03-30T14:32:45;18.48;;;3.30;;
53044;SDS011;38930;52.766;6.884;2023-03-30T14:35:14;19.10;;;3.57;;
53044;SDS011;38930;52.766;6.884;2023-03-30T14:37:42;13.48;;;2.70;;
53044;SDS011;38930;52.766;6.884;2023-03-30T14:40:17;13.75;;;2.95;;
53044;SDS011;38930;52.766;6.884;2023-03-30T14:42:43;13.40;;;3.65;;
53044;SDS011;38930;52.766;6.884;2023-03-30T14:45:09;19.70;;;3.53;;
53044;SDS011;38930;52.766;6.884;2023-03-30T14:47:41;15.73;;;3.05;;
53044;SDS011;38930;52.766;6.884;2023-03-30T14:50:07;14.67;;;2.90;;
53044;SDS011;38930;52.766;6.884;2023-03-30T14:52:39;15.23;;;2.53;;
53044;SDS011;38930;52.766;6.884;2023-03-30T14:55:06;12.88;;;4.10;;
53044;SDS011;38930;52.766;6.884;2023-03-30T14:57:40;13.27;;;2.97;;
53044;SDS011;38930;52.766;6.884;2023-03-30T15:00:11;15.45;;;2.75;;
53044;SDS011;38930;52.766;6.884;2023-03-30T15:02:42;15.77;;;3.53;;
53044;SDS011;38930;52.766;6.884;2023-03-30T15:05:09;12.00;;;3.05;;
53044;SDS011;38930;52.766;6.884;2023-03-30T15:07:35;16.03;;;2.77;;
53044;SDS011;38930;52.766;6.884;2023-03-30T15:10:01;17.30;;;3.70;;
53044;SDS011;38930;52.766;6.884;2023-03-30T15:12:32;18.98;;;3.95;;
53044;SDS011;38930;52.766;6.884;2023-03-30T15:15:02;15.00;;;3.13;;
53044;SDS011;38930;52.766;6.884;2023-03-30T15:17:31;15.73;;;3.45;;
53044;SDS011;38930;52.766;6.884;2023-03-30T15:19:59;14.25;;;2.83;;
53044;SDS011;38930;52.766;6.884;2023-03-30T15:22:35;15.57;;;2.65;;
53044;SDS011;38930;52.766;6.884;2023-03-30T15:25:09;13.45;;;2.58;;
53044;SDS011;38930;52.766;6.884;2023-03-30T15:27:38;13.82;;;3.17;;
53044;SDS011;38930;52.766;6.884;2023-03-30T15:30:11;14.10;;;2.78;;
53044;SDS011;38930;52.766;6.884;2023-03-30T15:32:52;12.35;;;3.03;;
53044;SDS011;38930;52.766;6.884;2023-03-30T15:35:21;11.05;;;2.72;;
53044;SDS011;38930;52.766;6.884;2023-03-30T15:37:59;14.63;;;2.97;;
53044;SDS011;38930;52.766;6.884;2023-03-30T15:40:41;15.98;;;3.28;;
53044;SDS011;38930;52.766;6.884;2023-03-30T15:46:22;11.73;;;3.38;;
53044;SDS011;38930;52.766;6.884;2023-03-30T15:48:42;17.27;;;3.10;;
53044;SDS011;38930;52.766;6.884;2023-03-30T15:54:15;15.63;;;2.65;;
53044;SDS011;38930;52.766;6.884;2023-03-30T15:57:03;15.50;;;3.00;;
53044;SDS011;38930;52.766;6.884;2023-03-30T15:59:43;11.40;;;3.35;;
53044;SDS011;38930;52.766;6.884;2023-03-30T16:05:04;14.02;;;3.65;;
53044;SDS011;38930;52.766;6.884;2023-03-30T16:07:31;14.60;;;3.83;;
53044;SDS011;38930;52.766;6.884;2023-03-30T16:09:57;21.20;;;4.40;;
53044;SDS011;38930;52.766;6.884;2023-03-30T16:12:23;21.30;;;4.47;;
53044;SDS011;38930;52.766;6.884;2023-03-30T16:14:51;20.60;;;3.35;;
53044;SDS011;38930;52.766;6.884;2023-03-30T16:17:17;17.67;;;3.38;;
53044;SDS011;38930;52.766;6.884;2023-03-30T16:19:44;17.23;;;3.00;;
53044;SDS011;38930;52.766;6.884;2023-03-30T16:22:10;14.43;;;3.30;;
53044;SDS011;38930;52.766;6.884;2023-03-30T16:24:37;12.63;;;3.28;;
53044;SDS011;38930;52.766;6.884;2023-03-30T16:27:04;18.43;;;3.50;;
53044;SDS011;38930;52.766;6.884;2023-03-30T16:29:31;12.82;;;3.10;;
53044;SDS011;38930;52.766;6.884;2023-03-30T16:31:58;20.85;;;4.45;;
53044;SDS011;38930;52.766;6.884;2023-03-30T16:34:23;18.77;;;3.60;;
53044;SDS011;38930;52.766;6.884;2023-03-30T16:36:50;15.25;;;3.10;;
53044;SDS011;38930;52.766;6.884;2023-03-30T16:39:20;20.05;;;3.47;;
53044;SDS011;38930;52.766;6.884;2023-03-30T16:41:48;16.83;;;3.05;;
53044;SDS011;38930;52.766;6.884;2023-03-30T16:44:15;20.23;;;3.58;;
53044;SDS011;38930;52.766;6.884;2023-03-30T16:46:41;20.33;;;3.78;;
53044;SDS011;38930;52.766;6.884;2023-03-30T16:49:14;21.30;;;2.83;;
53044;SDS011;38930;52.766;6.884;2023-03-30T16:51:48;16.88;;;3.40;;
53044;SDS011;38930;52.766;6.884;2023-03-30T16:56:41;15.68;;;3.03;;
53044;SDS011;38930;52.766;6.884;2023-03-30T16:59:20;19.03;;;4.37;;
53044;SDS011;38930;52.766;6.884;2023-03-30T17:01:47;18.23;;;3.17;;
53044;SDS011;38930;52.766;6.884;2023-03-30T17:06:40;16.52;;;4.00;;
53044;SDS011;38930;52.766;6.884;2023-03-30T17:09:07;15.77;;;3.60;;
53044;SDS011;38930;52.766;6.884;2023-03-30T17:11:36;17.63;;;3.95;;
53044;SDS011;38930;52.766;6.884;2023-03-30T17:14:05;23.13;;;4.65;;
53044;SDS011;38930;52.766;6.884;2023-03-30T17:16:32;16.23;;;3.25;;
53044;SDS011;38930;52.766;6.884;2023-03-30T17:18:59;19.85;;;3.25;;
53044;SDS011;38930;52.766;6.884;2023-03-30T17:21:29;19.25;;;3.50;;